Time;durP1;ratioP1;P1;durP2;ratioP2;P2;SDS_P1;SDS_P2;PMS_P1;PMS_P2;Temp;Humidity;BMP_temperature;BMP_pressure;BME280_temperature;BME280_humidity;BME280_pressure;Samples;Min_cycle;Max_cycle;Signal;HPM_P1;HPM_P2
2024/01/29 00:00:41;;;;;;;101.97;59.37;;;;;;;;;;5053798;28;20049;-68
2024/01/29 00:03:07;;;;;;;99.07;57.90;;;;;;;;;;5038969;28;20033;-68
2024/01/29 00:05:42;;;;;;;98.97;58.90;;;;;;;;;;5053336;28;20039;-68
2024/01/29 00:08:08;;;;;;;94.07;56.30;;;;;;;;;;5051782;28;20516;-67
2024/01/29 00:10:34;;;;;;;100.87;58.07;;;;;;;;;;5053203;28;20057;-68
2024/01/29 00:13:00;;;;;;;101.47;57.97;;;;;;;;;;5053042;28;20191;-67
2024/01/29 00:15:26;;;;;;;94.43;57.30;;;;;;;;;;5050963;28;20029;-67
2024/01/29 00:17:52;;;;;;;96.23;56.87;;;;;;;;;;5053081;28;20025;-68
2024/01/29 00:20:18;;;;;;;97.17;55.90;;;;;;;;;;5053285;28;20032;-68
2024/01/29 00:22:44;;;;;;;106.67;60.83;;;;;;;;;;5053396;28;20463;-68
2024/01/29 00:25:10;;;;;;;96.50;55.60;;;;;;;;;;5052943;28;20032;-67
2024/01/29 00:27:36;;;;;;;87.57;54.67;;;;;;;;;;5053096;28;20355;-67
2024/01/29 00:30:02;;;;;;;92.93;56.60;;;;;;;;;;5053024;28;20032;-68
2024/01/29 00:32:29;;;;;;;92.37;55.87;;;;;;;;;;5052848;28;20474;-67
2024/01/29 00:34:55;;;;;;;98.30;55.93;;;;;;;;;;5041368;28;20102;-68
2024/01/29 00:37:22;;;;;;;87.40;52.93;;;;;;;;;;5048883;28;20032;-68
2024/01/29 00:39:49;;;;;;;93.93;55.20;;;;;;;;;;5046230;28;20036;-67
2024/01/29 00:42:31;;;;;;;88.70;54.50;;;;;;;;;;5047548;28;20025;-68
2024/01/29 00:44:57;;;;;;;96.37;53.00;;;;;;;;;;5051427;28;20024;-68
2024/01/29 00:47:23;;;;;;;98.23;55.83;;;;;;;;;;5047650;28;20036;-68
2024/01/29 00:49:49;;;;;;;86.93;51.60;;;;;;;;;;5044605;28;20491;-67
2024/01/29 00:52:15;;;;;;;87.30;53.27;;;;;;;;;;5050636;28;20028;-67
2024/01/29 00:54:41;;;;;;;83.27;51.53;;;;;;;;;;5048446;28;20037;-68
2024/01/29 00:57:07;;;;;;;96.63;54.63;;;;;;;;;;5050415;28;20033;-68
2024/01/29 00:59:33;;;;;;;86.80;53.43;;;;;;;;;;5052530;28;20406;-68
2024/01/29 01:01:59;;;;;;;83.77;53.00;;;;;;;;;;5052438;28;20475;-68
2024/01/29 01:04:26;;;;;;;85.90;51.40;;;;;;;;;;5052190;28;20039;-67
2024/01/29 01:06:52;;;;;;;83.33;50.63;;;;;;;;;;5052338;28;20029;-67
2024/01/29 01:09:18;;;;;;;79.23;50.13;;;;;;;;;;5052293;28;20033;-67
2024/01/29 01:11:44;;;;;;;83.97;51.23;;;;;;;;;;5051939;28;20112;-67
2024/01/29 01:14:10;;;;;;;83.43;50.10;;;;;;;;;;5052508;28;20137;-68
2024/01/29 01:16:36;;;;;;;85.47;52.40;;;;;;;;;;5052368;28;20502;-67
2024/01/29 01:19:02;;;;;;;88.70;52.83;;;;;;;;;;5052163;28;20021;-67
2024/01/29 01:21:28;;;;;;;83.23;50.47;;;;;;;;;;5052280;28;20116;-67
2024/01/29 01:23:54;;;;;;;81.93;51.73;;;;;;;;;;5051994;28;20035;-67
2024/01/29 01:26:20;;;;;;;77.90;50.50;;;;;;;;;;5051977;28;20024;-68
2024/01/29 01:28:46;;;;;;;83.37;50.60;;;;;;;;;;5051913;28;20031;-68
2024/01/29 01:31:12;;;;;;;79.43;48.97;;;;;;;;;;5052074;28;20389;-67
2024/01/29 01:33:38;;;;;;;82.10;50.07;;;;;;;;;;5051970;28;20237;-67
2024/01/29 01:36:04;;;;;;;81.43;50.20;;;;;;;;;;5052165;28;20028;-68
2024/01/29 01:38:30;;;;;;;79.53;47.37;;;;;;;;;;5050595;28;20029;-67
2024/01/29 01:40:56;;;;;;;77.03;48.50;;;;;;;;;;5056266;28;20021;-68
2024/01/29 01:43:26;;;;;;;79.77;49.93;;;;;;;;;;5057301;28;20022;-68
2024/01/29 01:46:14;;;;;;;79.03;49.27;;;;;;;;;;5058990;28;20029;-67
2024/01/29 01:48:40;;;;;;;81.17;49.87;;;;;;;;;;5058394;28;20536;-68
2024/01/29 01:51:07;;;;;;;79.40;49.07;;;;;;;;;;5058350;28;20331;-67
2024/01/29 01:53:35;;;;;;;79.73;50.77;;;;;;;;;;5058438;28;20017;-67
2024/01/29 01:56:01;;;;;;;76.57;48.13;;;;;;;;;;5056188;28;20025;-68
2024/01/29 01:58:27;;;;;;;75.63;48.20;;;;;;;;;;5053157;28;20101;-67
2024/01/29 02:00:55;;;;;;;77.17;49.33;;;;;;;;;;5058324;28;20482;-67
2024/01/29 02:03:21;;;;;;;78.57;49.40;;;;;;;;;;5058393;28;20021;-68
2024/01/29 02:05:47;;;;;;;76.83;48.57;;;;;;;;;;5057323;28;20577;-68
2024/01/29 02:08:14;;;;;;;74.07;48.37;;;;;;;;;;5057583;28;20029;-68
2024/01/29 02:10:40;;;;;;;75.53;48.40;;;;;;;;;;5057366;28;20052;-67
2024/01/29 02:13:13;;;;;;;77.47;48.43;;;;;;;;;;5056263;28;20119;-68
2024/01/29 02:15:42;;;;;;;76.90;46.70;;;;;;;;;;5055941;28;20048;-68
2024/01/29 02:18:08;;;;;;;75.77;46.33;;;;;;;;;;5057581;28;20039;-67
2024/01/29 02:20:34;;;;;;;73.97;47.60;;;;;;;;;;5057367;28;20044;-67
2024/01/29 02:23:00;;;;;;;75.50;47.23;;;;;;;;;;5058406;28;20082;-67
2024/01/29 02:25:26;;;;;;;72.53;46.57;;;;;;;;;;5057951;28;20031;-67
2024/01/29 02:27:52;;;;;;;80.87;48.40;;;;;;;;;;5057897;28;20083;-68
2024/01/29 02:30:18;;;;;;;79.73;50.17;;;;;;;;;;5054765;28;20403;-68
2024/01/29 02:32:44;;;;;;;79.00;48.20;;;;;;;;;;5055791;28;20449;-67
2024/01/29 02:35:11;;;;;;;85.87;52.73;;;;;;;;;;5056169;28;20056;-68
2024/01/29 02:37:37;;;;;;;79.23;49.70;;;;;;;;;;5056886;28;20031;-67
2024/01/29 02:40:04;;;;;;;79.97;49.23;;;;;;;;;;5051854;28;20026;-68
2024/01/29 02:42:30;;;;;;;83.57;49.63;;;;;;;;;;5054399;28;20033;-68
2024/01/29 02:57:10;;;;;;;80.73;48.70;;;;;;;;;;5039195;28;20474;-68
2024/01/29 02:59:37;;;;;;;83.00;50.90;;;;;;;;;;5048489;28;20436;-68
2024/01/29 03:02:04;;;;;;;79.37;47.43;;;;;;;;;;5046466;28;20025;-68
2024/01/29 03:04:30;;;;;;;75.93;47.47;;;;;;;;;;5037088;28;20117;-68
2024/01/29 03:06:56;;;;;;;76.03;48.20;;;;;;;;;;5044869;28;20025;-68
2024/01/29 03:09:22;;;;;;;80.60;49.47;;;;;;;;;;5048902;28;20056;-68
2024/01/29 03:11:48;;;;;;;78.17;47.83;;;;;;;;;;5054470;28;20041;-68
2024/01/29 03:14:14;;;;;;;82.40;51.33;;;;;;;;;;5069768;28;20045;-68
2024/01/29 03:16:40;;;;;;;98.83;51.43;;;;;;;;;;5054242;28;20192;-68
2024/01/29 03:19:07;;;;;;;77.60;47.50;;;;;;;;;;5041173;28;20038;-68
2024/01/29 03:21:33;;;;;;;80.43;47.60;;;;;;;;;;5037525;28;20049;-67
2024/01/29 03:23:59;;;;;;;74.93;46.83;;;;;;;;;;5054219;28;20462;-68
2024/01/29 03:26:25;;;;;;;75.30;46.50;;;;;;;;;;5052612;28;20036;-67
2024/01/29 03:28:52;;;;;;;79.20;47.47;;;;;;;;;;5046562;28;20135;-67
2024/01/29 03:31:18;;;;;;;74.77;46.43;;;;;;;;;;5048062;28;20029;-67
2024/01/29 03:33:44;;;;;;;74.43;45.93;;;;;;;;;;5054352;28;20028;-67
2024/01/29 03:36:11;;;;;;;75.43;45.93;;;;;;;;;;5054153;28;20405;-67
2024/01/29 03:38:37;;;;;;;74.63;45.57;;;;;;;;;;5053915;28;20021;-67
2024/01/29 03:41:04;;;;;;;69.10;42.30;;;;;;;;;;5054097;28;20029;-67
2024/01/29 03:43:30;;;;;;;70.63;44.60;;;;;;;;;;5053392;28;20048;-67
2024/01/29 03:45:58;;;;;;;71.90;43.93;;;;;;;;;;5042404;28;20475;-67
2024/01/29 03:48:26;;;;;;;80.13;45.13;;;;;;;;;;5053838;28;20052;-67
2024/01/29 03:50:52;;;;;;;81.73;45.80;;;;;;;;;;5047665;28;20105;-67
2024/01/29 03:53:18;;;;;;;73.83;43.93;;;;;;;;;;5050927;28;20105;-68
2024/01/29 03:55:44;;;;;;;75.20;45.67;;;;;;;;;;5039434;28;20312;-68
2024/01/29 03:58:10;;;;;;;84.93;47.40;;;;;;;;;;5053318;28;20027;-67
2024/01/29 04:00:38;;;;;;;79.10;45.23;;;;;;;;;;5052243;28;20029;-68
2024/01/29 04:03:05;;;;;;;79.57;46.50;;;;;;;;;;5053082;28;20064;-67
2024/01/29 04:05:31;;;;;;;81.57;46.90;;;;;;;;;;5053732;28;20028;-68
2024/01/29 04:07:57;;;;;;;85.67;47.33;;;;;;;;;;5053485;28;20025;-67
2024/01/29 04:10:23;;;;;;;90.47;46.90;;;;;;;;;;5053149;28;20032;-67
2024/01/29 04:12:49;;;;;;;84.53;45.00;;;;;;;;;;5053046;28;20032;-67
2024/01/29 04:15:15;;;;;;;87.37;46.70;;;;;;;;;;5053243;28;20041;-67
2024/01/29 04:17:41;;;;;;;82.23;47.50;;;;;;;;;;5053412;28;20440;-67
2024/01/29 04:20:07;;;;;;;88.80;46.67;;;;;;;;;;5048903;28;20032;-67
2024/01/29 04:22:33;;;;;;;80.73;45.97;;;;;;;;;;5049835;28;20106;-67
2024/01/29 04:25:00;;;;;;;81.10;46.93;;;;;;;;;;5046223;28;20426;-67
2024/01/29 04:27:26;;;;;;;83.83;47.07;;;;;;;;;;5046110;28;20115;-68
2024/01/29 04:29:52;;;;;;;88.30;47.17;;;;;;;;;;5053100;28;20501;-67
2024/01/29 04:32:18;;;;;;;95.80;48.70;;;;;;;;;;5051552;28;20104;-67
2024/01/29 04:34:44;;;;;;;83.73;47.43;;;;;;;;;;5047985;28;20121;-67
2024/01/29 04:37:10;;;;;;;93.27;49.57;;;;;;;;;;5052827;28;20029;-67
2024/01/29 04:39:39;;;;;;;81.40;47.83;;;;;;;;;;5052525;28;20553;-67
2024/01/29 04:42:08;;;;;;;89.07;47.60;;;;;;;;;;5052502;28;20028;-68
2024/01/29 04:44:34;;;;;;;89.33;49.67;;;;;;;;;;5052415;28;20422;-68
2024/01/29 04:47:00;;;;;;;82.73;46.67;;;;;;;;;;5038943;28;20053;-67
2024/01/29 04:49:26;;;;;;;87.00;48.30;;;;;;;;;;5052769;28;20072;-67
2024/01/29 04:51:52;;;;;;;82.63;47.10;;;;;;;;;;5038411;28;20035;-67
2024/01/29 04:54:18;;;;;;;87.13;49.63;;;;;;;;;;5032875;28;20037;-67
2024/01/29 04:56:44;;;;;;;85.17;48.50;;;;;;;;;;5044720;28;20025;-67
2024/01/29 04:59:10;;;;;;;84.20;48.13;;;;;;;;;;5047727;28;20045;-67
2024/01/29 05:01:36;;;;;;;92.47;49.77;;;;;;;;;;5041834;28;20021;-67
2024/01/29 05:04:02;;;;;;;95.30;49.03;;;;;;;;;;5052410;28;20064;-67
2024/01/29 05:06:28;;;;;;;93.30;50.53;;;;;;;;;;5052733;28;20033;-67
2024/01/29 05:08:55;;;;;;;85.43;47.97;;;;;;;;;;5052207;28;20068;-67
2024/01/29 05:11:21;;;;;;;83.73;46.10;;;;;;;;;;5045834;28;20049;-67
2024/01/29 05:13:47;;;;;;;83.53;48.00;;;;;;;;;;5045282;28;20064;-67
2024/01/29 05:16:15;;;;;;;86.47;48.73;;;;;;;;;;5051313;28;20064;-67
2024/01/29 05:18:41;;;;;;;86.13;47.77;;;;;;;;;;5051871;28;20120;-67
2024/01/29 05:21:07;;;;;;;86.60;48.07;;;;;;;;;;5052074;28;20497;-67
2024/01/29 05:23:33;;;;;;;79.83;44.73;;;;;;;;;;5046422;28;20096;-67
2024/01/29 05:26:00;;;;;;;82.97;43.93;;;;;;;;;;5047797;28;20032;-66
2024/01/29 05:28:26;;;;;;;81.70;45.77;;;;;;;;;;5048353;28;20032;-67
2024/01/29 05:30:52;;;;;;;95.73;45.77;;;;;;;;;;5049199;28;20028;-67
2024/01/29 05:33:18;;;;;;;82.63;44.73;;;;;;;;;;5045545;28;20444;-67
2024/01/29 05:35:44;;;;;;;83.63;46.13;;;;;;;;;;5044112;28;20033;-66
2024/01/29 05:38:10;;;;;;;79.10;44.23;;;;;;;;;;5048200;28;20029;-67
2024/01/29 05:40:36;;;;;;;82.17;44.90;;;;;;;;;;5050515;28;20024;-67
2024/01/29 05:43:02;;;;;;;79.90;44.30;;;;;;;;;;5051892;28;20100;-67
2024/01/29 05:45:28;;;;;;;82.77;45.13;;;;;;;;;;5047038;28;20233;-67
2024/01/29 05:47:54;;;;;;;78.90;43.60;;;;;;;;;;5045876;28;20032;-68
2024/01/29 05:50:32;;;;;;;84.17;45.40;;;;;;;;;;5031814;28;20032;-67
2024/01/29 05:52:58;;;;;;;73.20;43.83;;;22.60;99.90;;;;;;5045271;28;20037;-67
2024/01/29 05:55:24;;;;;;;76.63;41.63;;;21.10;99.90;;;;;;5049826;28;20036;-67
2024/01/29 05:57:50;;;;;;;71.83;41.90;;;21.00;99.90;;;;;;5038769;28;20021;-67
2024/01/29 06:00:16;;;;;;;60.70;37.93;;;21.00;99.90;;;;;;5045640;28;20068;-67
2024/01/29 06:02:46;;;;;;;66.80;40.00;;;20.90;99.90;;;;;;5041436;28;20471;-67
2024/01/29 06:05:12;;;;;;;65.67;37.60;;;20.90;99.90;;;;;;5050039;28;20040;-68
2024/01/29 06:07:38;;;;;;;62.27;37.87;;;;;;;;;;5051686;28;20382;-67
2024/01/29 06:10:05;;;;;;;54.87;34.90;;;;;;;;;;5051531;28;20358;-67
2024/01/29 06:12:31;;;;;;;57.37;35.97;;;;;;;;;;5050976;28;20378;-67
2024/01/29 06:14:57;;;;;;;61.97;36.80;;;;;;;;;;5038576;28;20140;-67
2024/01/29 06:17:23;;;;;;;60.67;35.57;;;;;;;;;;5050041;28;20032;-67
2024/01/29 06:19:49;;;;;;;54.80;33.47;;;;;;;;;;5042135;28;20099;-67
2024/01/29 06:22:16;;;;;;;60.57;35.20;;;;;;;;;;5051447;28;20026;-67
2024/01/29 06:24:42;;;;;;;56.90;36.23;;;;;;;;;;5050161;28;20157;-68
2024/01/29 06:27:08;;;;;;;50.70;33.97;;;;;;;;;;5039665;28;20537;-67
2024/01/29 06:29:34;;;;;;;57.37;34.57;;;;;;;;;;5053957;28;20061;-67
2024/01/29 06:32:01;;;;;;;55.83;35.20;;;;;;;;;;5054174;28;20067;-67
2024/01/29 06:34:28;;;;;;;50.67;34.33;;;;;;;;;;5054705;28;20036;-67
2024/01/29 06:36:54;;;;;;;56.37;35.33;;;;;;;;;;5055120;28;20505;-67
2024/01/29 06:39:20;;;;;;;52.60;35.30;;;;;;;;;;5054948;28;20017;-67
2024/01/29 06:41:46;;;;;;;55.67;34.70;;;;;;;;;;5054840;28;20045;-67
2024/01/29 06:44:12;;;;;;;54.33;34.33;;;;;;;;;;5051723;28;20028;-66
2024/01/29 06:46:38;;;;;;;54.17;34.07;;;;;;;;;;5054733;28;20021;-67
2024/01/29 06:49:06;;;;;;;57.97;36.00;;;;;;;;;;5043031;28;20095;-67
2024/01/29 06:51:32;;;;;;;57.03;36.73;;;;;;;;;;5052918;28;20415;-67
2024/01/29 06:54:00;;;;;;;52.57;35.97;;;;;;;;;;5054886;28;20057;-67
2024/01/29 06:56:26;;;;;;;56.90;35.90;;;;;;;;;;5049711;28;20040;-67
2024/01/29 06:58:52;;;;;;;58.40;36.37;;;;;;;;;;5040376;28;20045;-66
2024/01/29 07:01:22;;;;;;;61.93;37.87;;;;;;;;;;5049540;28;20194;-67
2024/01/29 07:03:48;;;;;;;56.83;35.63;;;;;;;;;;5054092;28;20467;-67
2024/01/29 07:06:14;;;;;;;55.50;37.47;;;;;;;;;;5040931;28;20036;-67
2024/01/29 07:08:40;;;;;;;60.20;37.33;;;;;;;;;;5053852;28;20031;-67
2024/01/29 07:11:06;;;;;;;55.63;35.20;;;;;;;;;;5048287;28;20111;-67
2024/01/29 07:13:32;;;;;;;53.97;34.60;;;;;;;;;;5053784;28;20070;-67
2024/01/29 07:15:59;;;;;;;57.30;36.60;;;;;;;;;;5054070;28;20033;-67
2024/01/29 07:18:25;;;;;;;55.43;36.27;;;;;;;;;;5053900;28;20017;-68
2024/01/29 07:20:51;;;;;;;55.50;34.73;;;;;;;;;;5052975;28;20021;-68
2024/01/29 07:23:17;;;;;;;55.17;34.90;;;;;;;;;;5044617;28;20063;-68
2024/01/29 07:25:43;;;;;;;57.93;35.30;;;;;;;;;;5054148;28;20044;-68
2024/01/29 07:28:09;;;;;;;53.30;35.63;;;;;;;;;;5053801;28;20025;-67
2024/01/29 07:30:35;;;;;;;57.50;35.77;;;;;;;;;;5053884;28;20078;-67
2024/01/29 07:33:02;;;;;;;58.67;35.80;;;;;;;;;;5053732;28;20090;-67
2024/01/29 07:35:28;;;;;;;61.70;37.97;;;;;;;;;;5034371;28;20045;-67
2024/01/29 07:37:54;;;;;;;57.90;35.77;;;;;;;;;;5053266;28;20025;-67
2024/01/29 07:40:21;;;;;;;55.23;36.63;;;;;;;;;;5049769;28;20020;-67
2024/01/29 07:42:47;;;;;;;57.50;36.77;;;;;;;;;;5053607;28;20387;-67
2024/01/29 07:45:13;;;;;;;61.60;38.63;;;;;;;;;;5053527;28;20101;-67
2024/01/29 07:47:39;;;;;;;58.93;36.73;;;;;;;;;;5052930;28;20032;-67
2024/01/29 07:50:06;;;;;;;55.53;35.33;;;;;;;;;;5053809;28;20057;-67
2024/01/29 07:52:32;;;;;;;55.33;34.40;;;;;;;;;;5053763;28;20455;-67
2024/01/29 07:55:01;;;;;;;57.60;34.17;;;;;;;;;;5053635;28;20035;-67
2024/01/29 07:57:27;;;;;;;49.63;33.43;;;;;;;;;;5048707;28;20027;-67
2024/01/29 07:59:53;;;;;;;53.50;34.23;;;;;;;;;;5048129;28;20041;-68
2024/01/29 08:02:19;;;;;;;57.07;36.83;;;;;;;;;;5053616;28;20102;-67
2024/01/29 08:04:45;;;;;;;56.10;37.03;;;;;;;;;;5040147;28;20025;-67
2024/01/29 08:07:11;;;;;;;61.60;37.33;;;;;;;;;;5051447;28;20382;-67
2024/01/29 08:09:37;;;;;;;54.47;36.00;;;;;;;;;;5043751;28;20063;-67
2024/01/29 08:12:05;;;;;;;55.63;37.00;;;;;;;;;;5052359;28;20527;-67
2024/01/29 08:14:31;;;;;;;55.53;34.80;;;;;;;;;;5053131;28;20339;-67
2024/01/29 08:16:57;;;;;;;54.23;35.60;;;;;;;;;;5052967;28;20017;-67
2024/01/29 08:19:23;;;;;;;58.00;36.67;;;;;;;;;;5051867;28;20033;-67
2024/01/29 08:21:49;;;;;;;58.23;37.63;;;;;;;;;;5052028;28;20028;-67
2024/01/29 08:24:15;;;;;;;53.80;35.57;;;;;;;;;;5055881;28;20485;-67
2024/01/29 08:26:41;;;;;;;55.73;35.17;;;;;;;;;;5051581;28;20428;-67
2024/01/29 08:29:07;;;;;;;58.57;37.80;;;;;;;;;;5053212;28;20060;-68
2024/01/29 08:31:33;;;;;;;61.53;39.30;;;;;;;;;;5053002;28;20017;-67
2024/01/29 08:33:59;;;;;;;58.47;37.70;;;;;;;;;;5052833;28;20087;-68
2024/01/29 08:36:25;;;;;;;60.57;37.40;;;;;;;;;;5053281;28;20104;-67
2024/01/29 08:38:51;;;;;;;60.43;37.90;;;;;;;;;;5052950;28;20055;-67
2024/01/29 08:41:17;;;;;;;60.53;38.33;;;;;;;;;;5052941;28;20116;-68
2024/01/29 08:43:43;;;;;;;57.73;35.33;;;;;;;;;;5047384;28;20028;-68
2024/01/29 08:46:10;;;;;;;57.70;37.67;;;;;;;;;;5050796;28;20106;-68
2024/01/29 08:48:36;;;;;;;56.97;35.93;;;;;;;;;;5052580;28;20025;-63
2024/01/29 08:51:02;;;;;;;59.70;35.90;;;;;;;;;;5051869;28;20032;-64
2024/01/29 08:53:30;;;;;;;61.90;38.40;;;;;;;;;;5052466;28;20032;-57
2024/01/29 08:55:56;;;;;;;56.40;37.90;;;;;;;;;;5050235;28;20123;-60
2024/01/29 08:58:22;;;;;;;62.23;38.53;;;;;;;;;;5054115;28;20048;-61
2024/01/29 09:00:53;;;;;;;71.97;41.87;;;;;;;;;;5046358;28;20048;-64
2024/01/29 09:03:20;;;;;;;62.40;39.43;;;;;;;;;;5048496;28;20309;-67
2024/01/29 09:05:47;;;;;;;70.73;40.50;;;;;;;;;;5051610;28;20031;-72
2024/01/29 09:08:14;;;;;;;65.70;39.80;;;;;;;;;;5052709;28;20074;-60
2024/01/29 09:10:40;;;;;;;73.50;40.90;;;;;;;;;;5051507;28;20017;-63
2024/01/29 09:13:06;;;;;;;70.00;41.80;;;;;;;;;;5050874;28;20352;-63
2024/01/29 09:15:31;;;;;;;69.40;41.07;;;;;;;;;;5049607;28;20128;-62
2024/01/29 09:17:57;;;;;;;77.50;44.07;;;;;;;;;;5062087;28;20024;-62
2024/01/29 09:20:23;;;;;;;70.10;41.77;;;;;;;;;;5048314;28;20044;-68
2024/01/29 09:22:49;;;;;;;78.90;44.33;;;;;;;;;;5035100;28;20053;-59
2024/01/29 09:25:15;;;;;;;85.10;46.33;;;;;;;;;;5042556;28;20021;-55
2024/01/29 09:27:41;;;;;;;80.07;45.00;;;;;;;;;;5043497;28;20609;-63
2024/01/29 09:30:08;;;;;;;69.57;43.20;;;;;;;;;;5050137;28;20024;-48
2024/01/29 09:32:34;;;;;;;78.70;44.83;;;;;;;;;;5051310;28;20064;-55
2024/01/29 09:35:00;;;;;;;88.87;50.57;;;;;;;;;;5051334;28;20056;-59
2024/01/29 09:37:26;;;;;;;95.40;50.47;;;;;;;;;;5051853;28;20024;-58
2024/01/29 09:39:53;;;;;;;94.17;52.43;;;;;;;;;;5051589;28;20025;-54
2024/01/29 09:42:20;;;;;;;101.77;52.77;;;;;;;;;;5051601;28;20037;-62
2024/01/29 09:44:47;;;;;;;90.33;49.43;;;;;;;;;;5051287;28;20021;-62
2024/01/29 09:47:14;;;;;;;91.53;51.40;;;;;;;;;;5046410;28;20036;-76
2024/01/29 09:49:44;;;;;;;86.20;50.63;;;;;;;;;;5043939;28;20439;-73
2024/01/29 09:52:14;;;;;;;94.27;51.80;;;;;;;;;;5051326;28;20033;-65
2024/01/29 09:54:41;;;;;;;90.30;51.80;;;;;;;;;;5051332;28;20036;-74
2024/01/29 09:57:11;;;;;;;93.97;51.40;;;;;;;;;;5051953;28;20464;-68
2024/01/29 09:59:46;;;;;;;95.40;52.47;;;;;;;;;;5049524;28;20060;-65
2024/01/29 10:02:13;;;;;;;94.97;50.83;;;;;;;;;;5051574;28;20021;-67
2024/01/29 10:04:39;;;;;;;89.90;52.67;;;;;;;;;;5055551;28;20480;-61
2024/01/29 10:07:05;;;;;;;94.87;51.93;;;;;;;;;;5055394;28;20090;-64
2024/01/29 10:09:31;;;;;;;88.50;50.90;;;;;;;;;;5054405;28;20108;-63
2024/01/29 10:11:57;;;;;;;92.50;50.73;;;;;;;;;;5055872;28;20081;-62
2024/01/29 10:14:23;;;;;;;89.97;50.23;;;;;;;;;;5054611;28;20029;-60
2024/01/29 10:16:50;;;;;;;89.63;50.23;;;;;;;;;;5052366;28;20032;-63
2024/01/29 10:19:16;;;;;;;96.43;52.83;;;;;;;;;;5047921;28;20029;-70
2024/01/29 10:21:43;;;;;;;88.30;51.67;;;;;;;;;;5052381;28;20478;-64
2024/01/29 10:24:13;;;;;;;91.23;49.13;;;;;;;;;;5049694;28;20477;-64
2024/01/29 10:26:39;;;;;;;92.17;50.93;;;;;;;;;;5049512;28;20120;-65
2024/01/29 10:29:05;;;;;;;92.10;51.70;;;;;;;;;;5051562;28;20024;-60
2024/01/29 10:31:34;;;;;;;91.17;51.60;;;;;;;;;;5053338;28;20032;-63
2024/01/29 10:34:01;;;;;;;98.07;48.70;;;;;;;;;;5054706;28;20072;-70
2024/01/29 10:36:27;;;;;;;90.03;51.97;;;;;;;;;;5046095;28;20064;-69
2024/01/29 10:38:54;;;;;;;82.30;47.43;;;;;;;;;;5055010;28;20025;-72
2024/01/29 10:41:21;;;;;;;89.97;51.40;;;;;;;;;;5055540;28;20123;-72
2024/01/29 10:43:50;;;;;;;84.10;48.87;;;;;;;;;;5050861;28;20027;-61
2024/01/29 10:49:21;;;;;;;87.47;49.90;;;;;;;;;;5045082;28;20036;-70
2024/01/29 10:51:48;;;;;;;92.70;51.07;;;;;;;;;;5051210;28;20123;-64
2024/01/29 10:54:14;;;;;;;85.77;50.03;;;;;;;;;;5054355;28;20044;-64
2024/01/29 10:56:41;;;;;;;98.47;53.80;;;;;;;;;;5054719;28;20039;-66
2024/01/29 10:59:08;;;;;;;90.23;49.40;;;;;;;;;;5048556;28;20049;-64
2024/01/29 11:01:34;;;;;;;91.77;50.37;;;;;;;;;;5052717;28;20029;-64
2024/01/29 11:04:01;;;;;;;92.70;51.53;;;;;;;;;;5053361;28;20437;-66
2024/01/29 11:06:47;;;;;;;84.27;49.67;;;;;;;;;;5054137;28;20075;-68
2024/01/29 11:09:15;;;;;;;86.10;48.20;;;;;;;;;;5045204;28;20059;-69
2024/01/29 11:11:44;;;;;;;78.33;45.60;;;;;;;;;;5054340;28;20532;-62
2024/01/29 11:14:10;;;;;;;74.97;46.80;;;;;;;;;;5052881;28;20401;-63
2024/01/29 11:16:37;;;;;;;78.37;48.07;;;;;;;;;;5052448;28;20033;-65
2024/01/29 11:19:03;;;;;;;76.73;45.50;;;;;;;;;;5046644;28;20064;-62
2024/01/29 11:21:29;;;;;;;80.93;45.40;;;;;;;;;;5054569;28;20061;-63
2024/01/29 11:23:56;;;;;;;82.43;46.83;;;;;;;;;;5050931;28;20025;-64
2024/01/29 11:26:23;;;;;;;80.50;44.33;;;;;;;;;;5051292;28;20029;-67
2024/01/29 11:29:01;;;;;;;85.77;46.33;;;;;;;;;;5046095;28;20056;-64
2024/01/29 11:31:39;;;;;;;79.73;46.73;;;;;;;;;;5052303;28;20087;-60
2024/01/29 11:34:05;;;;;;;81.67;46.67;;;;;;;;;;5041364;28;20072;-61
2024/01/29 11:36:32;;;;;;;76.07;46.13;;;;;;;;;;5051829;28;20131;-61
2024/01/29 11:39:05;;;;;;;80.77;44.90;;;;;;;;;;5051220;28;20032;-62
2024/01/29 11:41:35;;;;;;;75.03;44.27;;;;;;;;;;5053890;28;20116;-60
2024/01/29 11:44:02;;;;;;;76.87;43.83;;;;;;;;;;5054049;28;20112;-61
2024/01/29 11:46:31;;;;;;;76.60;45.07;;;;;;;;;;5051166;28;20013;-61
2024/01/29 11:48:58;;;;;;;71.17;44.27;;;;;;;;;;5044141;28;20043;-61
2024/01/29 11:51:29;;;;;;;75.77;43.93;;;;;;;;;;5053456;28;20025;-61
2024/01/29 11:53:55;;;;;;;79.30;45.30;;;;;;;;;;5046788;28;20030;-61
2024/01/29 11:56:21;;;;;;;72.97;45.93;;;;;;;;;;5053297;28;20083;-61
2024/01/29 11:58:59;;;;;;;78.20;45.30;;;;;;;;;;5053196;28;20041;-61
2024/01/29 12:01:31;;;;;;;68.93;42.83;;;;;;;;;;5053455;28;20056;-61
2024/01/29 12:03:58;;;;;;;71.83;44.73;;;;;;;;;;5051885;28;20073;-61
2024/01/29 12:06:24;;;;;;;68.50;42.90;;;;;;;;;;5053161;28;20024;-61
2024/01/29 12:08:53;;;;;;;77.23;45.07;;;;;;;;;;5053163;28;20048;-61
2024/01/29 12:11:21;;;;;;;70.50;42.63;;;;;;;;;;5053352;28;20028;-61
2024/01/29 12:13:48;;;;;;;70.37;43.37;;;;;;;;;;5052979;28;20021;-61
2024/01/29 12:16:15;;;;;;;66.10;41.97;;;;;;;;;;5051261;28;20137;-61
2024/01/29 12:18:41;;;;;;;70.87;42.60;;;;;;;;;;5052873;28;20501;-61
2024/01/29 12:21:07;;;;;;;68.03;42.37;;;;;;;;;;5043615;28;20026;-61
2024/01/29 12:23:33;;;;;;;68.50;41.37;;;;;;;;;;5047069;28;20115;-61
2024/01/29 12:25:59;;;;;;;62.17;38.73;;;;;;;;;;5052654;28;20041;-60
2024/01/29 12:28:26;;;;;;;57.93;38.37;;;;;;;;;;5043262;28;20034;-61
2024/01/29 12:30:56;;;;;;;65.03;40.47;;;;;;;;;;5050433;28;20017;-61
2024/01/29 12:33:44;;;;;;;69.30;41.10;;;;;;;;;;5052944;28;20021;-61
2024/01/29 12:36:12;;;;;;;62.50;38.43;;;;;;;;;;5052726;28;20033;-62
2024/01/29 12:41:42;;;;;;;65.83;39.13;;;;;;;;;;5041750;28;20031;-61
2024/01/29 12:44:17;;;;;;;70.70;40.33;;;;;;;;;;5052683;28;20090;-61
2024/01/29 12:46:44;;;;;;;64.80;39.20;;;;;;;;;;5044101;28;20418;-61
2024/01/29 12:49:11;;;;;;;64.37;39.93;;;;;;;;;;5046620;28;20107;-61
2024/01/29 12:51:37;;;;;;;63.57;39.93;;;;;;;;;;5038942;28;20017;-61
2024/01/29 12:54:03;;;;;;;67.87;41.70;;;;;;;;;;5052167;28;20074;-62
2024/01/29 12:56:30;;;;;;;66.63;39.60;;;;;;;;;;5051986;28;20483;-61
2024/01/29 12:58:57;;;;;;;61.40;38.40;;;;;;;;;;5051026;28;20155;-61
2024/01/29 13:01:35;;;;;;;69.67;40.10;;;;;;;;;;5048506;28;20328;-61
2024/01/29 13:04:01;;;;;;;74.80;41.13;;;;;;;;;;5042496;28;20028;-61
2024/01/29 13:06:27;;;;;;;64.50;41.13;;;;;;;;;;5052349;28;20029;-61
2024/01/29 13:08:53;;;;;;;71.00;44.23;;;;;;;;;;5051938;28;20437;-61
2024/01/29 13:11:19;;;;;;;71.30;44.00;;;;;;;;;;5051115;28;20028;-61
2024/01/29 13:13:45;;;;;;;72.57;44.83;;;;;;;;;;5048627;28;20033;-61
2024/01/29 13:16:11;;;;;;;70.27;44.47;;;;;;;;;;5046006;28;20174;-61
2024/01/29 13:18:37;;;;;;;73.80;46.43;;;;;;;;;;5050943;28;20378;-61
2024/01/29 13:21:04;;;;;;;76.73;44.70;;;;;;;;;;5051954;28;20025;-61
2024/01/29 13:23:30;;;;;;;75.87;46.70;;;;;;;;;;5051812;28;20108;-61
2024/01/29 13:25:56;;;;;;;72.03;43.90;;;;;;;;;;5048182;28;20484;-61
2024/01/29 13:28:22;;;;;;;83.72;47.90;;;;;;;;;;5045339;28;20029;-61
2024/01/29 13:30:49;;;;;;;84.93;48.73;;;;;;;;;;5051672;28;20445;-61
2024/01/29 13:33:16;;;;;;;82.07;47.63;;;;;;;;;;5050465;28;20099;-52
2024/01/29 13:35:42;;;;;;;77.50;46.27;;;;;;;;;;5048125;28;20066;-60
2024/01/29 13:38:08;;;;;;;83.37;47.50;;;;;;;;;;5051585;28;20021;-60
2024/01/29 13:40:34;;;;;;;81.83;48.23;;;;;;;;;;5051410;28;20025;-59
2024/01/29 13:43:02;;;;;;;87.50;46.92;;;;;;;;;;5051502;28;20098;-60
2024/01/29 13:45:28;;;;;;;76.37;46.90;;;;;;;;;;5051453;28;20032;-60
2024/01/29 13:47:54;;;;;;;79.97;48.53;;;;;;;;;;5037932;28;20147;-60
2024/01/29 13:50:20;;;;;;;80.20;47.90;;;;;;;;;;5041623;28;20108;-60
2024/01/29 13:52:47;;;;;;;79.63;48.57;;;;;;;;;;5049354;28;20025;-60
2024/01/29 13:55:13;;;;;;;80.60;44.85;;;;;;;;;;5051376;28;20116;-60
2024/01/29 13:57:39;;;;;;;79.43;50.13;;;;;;;;;;5051153;28;20390;-60
2024/01/29 14:00:05;;;;;;;77.93;46.10;;;;;;;;;;5051514;28;20433;-46
2024/01/29 14:02:34;;;;;;;75.97;47.38;;;;;;;;;;5048261;28;20036;-63
2024/01/29 14:05:00;;;;;;;77.43;46.67;;;;;;;;;;5033495;28;20068;-69
2024/01/29 14:07:26;;;;;;;78.30;48.33;;;;;;;;;;5051805;28;20038;-64
2024/01/29 14:10:20;;;;;;;75.40;45.57;;;;;;;;;;5051752;28;20028;-66
2024/01/29 14:12:46;;;;;;;75.32;47.35;;;;;;;;;;5041383;28;20095;-66
2024/01/29 14:15:12;;;;;;;75.07;47.03;;;;;;;;;;5051494;28;20505;-73
2024/01/29 14:17:38;;;;;;;77.65;46.17;;;;;;;;;;5051712;28;20017;-70
2024/01/29 14:20:05;;;;;;;77.00;45.63;;;;;;;;;;5052063;28;20021;-67
2024/01/29 14:22:32;;;;;;;77.30;46.75;;;;;;;;;;5051547;28;20059;-65
2024/01/29 14:24:59;;;;;;;73.93;45.40;;;;;;;;;;5051948;28;20029;-68
2024/01/29 14:27:25;;;;;;;83.67;48.57;;;;;;;;;;5051905;28;20057;-66
2024/01/29 14:29:51;;;;;;;76.03;45.50;;;;;;;;;;5051436;28;20067;-63